Strona główna
METAR-TAF:

METAR-TAF

Lotnisko :

Port lotniczy Dźinnaha w Karaczi

Karaczi, Pakistan

Szerokość geograficzna: 24-54N, Długość geograficzna: 067-08E, wysokość: 21 m

Aktualna obserwacja pogody

Raport powstał 1 godzina i 20 minut temu, godzina 10:55 UTC
Wiatr 14 kt od zachód
Temperatura 26°C
Wilgotność 48%
Ciśnienie 1008 hPa
Widzialność: 7000 m
Mało chmury na wysokości 10000 ft

METAR: OPKC 181055Z 28014KT 7000 FEW100 26/14 Q1008 TEMPO 25015G25KT

czas: 17:15 (12:15 UTC)

Prognoza

Raport powstał 2 godziny i 45 minut temu, godzina 09:30 UTC
Prognoza ważna od 18 godzina 12 UTC do 18 godzina 21 UTC
Wiatr 8 kt od zachodnio-południowy zachód w porywach dochodzący do 18 kt
Widzialność: 6000 m
Rozproszone chmury na wysokości 3000 ft
Rozproszone chmury na wysokości 10000 ft

TAF: OPKC 180930Z 1812/1821 25008G18KT 6000 SCT030 SCT100

Obserwacja i prognoza pogody dla ponad 4000 lotnisk (raport METAR i TAF).

Dostępne stacje oznaczono żółtymi i czerwonymi punktami na mapie.

Najedź kursorem aby zobaczyć nazwę stacji.

Kliknij aby zobaczyć obserwacje i prognozy pogody.

Aby zmienić mapę: kliknij na zielony przycisk z czarnym krzyżykiem, aby powiększyć; na zielony przycisk z myślnikiem, aby pomniejszyć; na zielone strzałki, aby przejść do map sąsiednich.


METAR-TAF: